createdAt,value
2022-09-06T00:00:58.140Z,21.33
2022-09-06T00:03:25.025Z,21.19
2022-09-06T00:05:51.649Z,21.00
2022-09-06T00:08:18.269Z,21.17
2022-09-06T00:10:44.813Z,21.09
2022-09-06T00:13:11.816Z,21.04
2022-09-06T00:15:38.458Z,20.83
2022-09-06T00:18:06.795Z,20.89
2022-09-06T00:20:34.642Z,20.85
2022-09-06T00:23:04.336Z,21.00
2022-09-06T00:25:31.991Z,20.86
2022-09-06T00:28:01.458Z,20.77
2022-09-06T00:30:29.686Z,20.91
2022-09-06T00:32:56.991Z,20.92
2022-09-06T00:35:24.959Z,20.96
2022-09-06T00:37:52.406Z,21.04
2022-09-06T00:40:19.042Z,21.29
2022-09-06T00:42:45.624Z,21.40
2022-09-06T00:45:12.794Z,21.36
2022-09-06T00:47:41.546Z,21.37
2022-09-06T00:50:11.049Z,21.27
2022-09-06T00:52:38.639Z,21.27
2022-09-06T00:55:06.277Z,21.30
2022-09-06T00:57:33.114Z,21.48
2022-09-06T01:00:00.589Z,21.52
2022-09-06T01:02:27.311Z,21.57
2022-09-06T01:04:55.375Z,21.48
2022-09-06T01:07:44.927Z,21.24
2022-09-06T01:10:20.479Z,21.30
2022-09-06T01:13:11.553Z,21.33
2022-09-06T01:16:13.660Z,21.13
2022-09-06T01:18:49.243Z,21.07
2022-09-06T01:21:18.590Z,21.17
2022-09-06T01:24:19.028Z,21.41
2022-09-06T01:27:10.489Z,21.53
2022-09-06T01:29:56.282Z,21.53
2022-09-06T01:32:34.890Z,21.54
2022-09-06T01:35:36.148Z,21.21
2022-09-06T01:38:03.926Z,20.97
2022-09-06T01:40:30.799Z,20.89
2022-09-06T01:42:58.287Z,20.78
2022-09-06T01:45:42.569Z,21.05
2022-09-06T01:48:17.755Z,21.22
2022-09-06T01:50:56.969Z,20.63
2022-09-06T01:53:36.356Z,20.50
2022-09-06T01:56:43.508Z,20.61
2022-09-06T01:59:40.636Z,20.29
2022-09-06T02:02:26.718Z,20.68
2022-09-06T02:05:01.430Z,20.75
2022-09-06T02:07:30.986Z,20.94
2022-09-06T02:10:06.613Z,21.17
2022-09-06T02:12:35.577Z,20.87
2022-09-06T02:15:07.401Z,20.58
2022-09-06T02:17:39.057Z,20.55
2022-09-06T02:20:11.357Z,20.56
2022-09-06T02:22:42.579Z,20.98
2022-09-06T02:25:15.143Z,21.04
2022-09-06T02:27:41.837Z,21.04
2022-09-06T02:30:09.014Z,20.95
2022-09-06T02:32:40.275Z,20.95
2022-09-06T02:35:14.738Z,20.95
2022-09-06T02:37:42.915Z,20.75
2022-09-06T02:40:10.545Z,20.66
2022-09-06T02:42:37.526Z,20.67
2022-09-06T02:45:05.333Z,20.40
2022-09-06T02:47:31.946Z,20.31
2022-09-06T02:49:58.573Z,20.71
2022-09-06T02:52:25.221Z,20.70
2022-09-06T02:54:52.321Z,20.79
2022-09-06T02:57:18.995Z,20.89
2022-09-06T02:59:46.336Z,20.94
2022-09-06T03:02:12.987Z,20.99
2022-09-06T03:04:39.677Z,20.93
2022-09-06T03:07:06.253Z,20.79
2022-09-06T03:09:32.853Z,20.67
2022-09-06T03:11:59.516Z,20.04
2022-09-06T03:14:26.155Z,20.45
2022-09-06T03:16:52.819Z,20.37
2022-09-06T03:19:20.188Z,20.02
2022-09-06T03:21:46.891Z,20.50
2022-09-06T03:24:13.607Z,20.55
2022-09-06T03:26:40.191Z,20.70
2022-09-06T03:29:06.840Z,20.70
2022-09-06T03:31:33.441Z,20.73
2022-09-06T03:34:00.155Z,20.73
2022-09-06T03:36:26.781Z,20.49
2022-09-06T03:38:54.146Z,20.16
2022-09-06T03:41:20.752Z,20.16
2022-09-06T03:43:47.382Z,20.35
2022-09-06T03:46:14.106Z,20.55
2022-09-06T03:48:40.987Z,20.08
2022-09-06T03:51:07.674Z,20.16
2022-09-06T03:53:34.321Z,20.39
2022-09-06T03:56:01.472Z,20.39
2022-09-06T03:58:33.105Z,20.23
2022-09-06T04:01:11.785Z,20.48
2022-09-06T04:03:39.523Z,20.49
2022-09-06T04:06:07.065Z,20.49
2022-09-06T04:08:35.913Z,20.49
2022-09-06T04:11:03.109Z,20.50
2022-09-06T04:13:30.402Z,20.10
2022-09-06T04:15:57.800Z,20.45
2022-09-06T04:18:24.545Z,20.51
2022-09-06T04:20:52.982Z,20.44
2022-09-06T04:23:20.333Z,20.23
2022-09-06T04:25:48.354Z,20.45
2022-09-06T04:28:15.957Z,20.02
2022-09-06T04:30:42.627Z,20.20
2022-09-06T04:33:09.300Z,20.23
2022-09-06T04:35:36.122Z,20.11
2022-09-06T04:38:03.792Z,19.82
2022-09-06T04:40:30.445Z,20.12
2022-09-06T04:42:57.022Z,20.34
2022-09-06T04:45:24.890Z,19.76
2022-09-06T04:47:51.610Z,19.73
2022-09-06T04:50:18.256Z,19.91
2022-09-06T04:52:48.056Z,20.10
2022-09-06T04:55:14.958Z,19.96
2022-09-06T04:57:45.162Z,20.34
2022-09-06T05:00:14.614Z,20.30
2022-09-06T05:02:41.246Z,20.37
2022-09-06T05:05:08.385Z,20.43
2022-09-06T05:07:35.078Z,20.31
2022-09-06T05:10:01.858Z,20.47
2022-09-06T05:12:28.628Z,20.19
2022-09-06T05:14:55.371Z,20.08
2022-09-06T05:17:22.002Z,19.95
2022-09-06T05:19:48.664Z,19.88
2022-09-06T05:22:15.354Z,19.48
2022-09-06T05:24:41.966Z,19.62
2022-09-06T05:27:08.912Z,19.50
2022-09-06T05:29:35.514Z,19.64
2022-09-06T05:32:02.463Z,19.49
2022-09-06T05:34:29.285Z,19.29
2022-09-06T05:36:55.889Z,19.32
2022-09-06T05:39:23.082Z,19.04
2022-09-06T05:41:49.786Z,19.00
2022-09-06T05:44:16.411Z,18.90
2022-09-06T05:46:46.652Z,18.88
2022-09-06T05:49:13.822Z,18.73
2022-09-06T05:51:40.848Z,18.51
2022-09-06T05:54:07.983Z,18.49
2022-09-06T05:56:34.758Z,18.52
2022-09-06T05:59:01.462Z,18.69
2022-09-06T06:01:30.200Z,18.89
2022-09-06T06:03:57.847Z,18.91
2022-09-06T06:06:26.198Z,18.79
2022-09-06T06:08:53.180Z,19.05
2022-09-06T06:11:20.158Z,18.81
2022-09-06T06:13:46.813Z,19.08
2022-09-06T06:16:18.171Z,18.86
2022-09-06T06:18:48.793Z,19.13
2022-09-06T06:21:20.571Z,19.32
2022-09-06T06:23:53.562Z,19.40
2022-09-06T06:26:20.583Z,19.45
2022-09-06T06:28:47.223Z,19.63
2022-09-06T06:31:14.626Z,19.59
2022-09-06T06:33:41.878Z,19.62
2022-09-06T06:36:23.550Z,19.76
2022-09-06T06:38:52.764Z,19.86
2022-09-06T06:41:21.388Z,19.89
2022-09-06T06:43:48.089Z,20.02
2022-09-06T06:46:17.320Z,20.17
2022-09-06T06:48:45.547Z,20.25
2022-09-06T06:51:14.690Z,20.29
2022-09-06T06:53:41.504Z,20.40
2022-09-06T06:56:15.539Z,20.57
2022-09-06T06:58:42.688Z,20.66
2022-09-06T07:01:10.189Z,20.86
2022-09-06T07:03:37.049Z,20.93
2022-09-06T07:06:12.939Z,20.94
2022-09-06T07:08:40.640Z,20.95
2022-09-06T07:11:09.922Z,21.12
2022-09-06T07:13:37.317Z,21.18
2022-09-06T07:16:15.280Z,21.19
2022-09-06T07:18:43.270Z,21.26
2022-09-06T07:26:31.863Z,21.38
2022-09-06T07:29:01.798Z,21.39
2022-09-06T07:34:17.772Z,21.53
2022-09-06T07:36:44.409Z,21.62
2022-09-06T07:39:11.084Z,21.73
2022-09-06T07:41:37.723Z,21.81
2022-09-06T07:44:04.342Z,21.88
2022-09-06T07:46:31.017Z,22.05
2022-09-06T07:48:57.744Z,22.18
2022-09-06T07:51:24.343Z,22.29
2022-09-06T07:54:06.965Z,22.33
2022-09-06T07:56:40.566Z,22.54
2022-09-06T07:59:07.214Z,22.48
2022-09-06T08:01:35.351Z,22.53
2022-09-06T08:04:06.187Z,22.70
2022-09-06T08:09:22.506Z,22.88
2022-09-06T08:11:51.068Z,23.04
2022-09-06T08:14:17.686Z,23.04
2022-09-06T08:16:44.389Z,23.08
2022-09-06T08:19:12.462Z,23.10
2022-09-06T08:21:39.243Z,23.13
2022-09-06T08:24:08.047Z,23.27
2022-09-06T08:26:39.856Z,23.48
2022-09-06T08:29:08.756Z,23.57
2022-09-06T08:31:38.489Z,23.57
2022-09-06T08:34:05.931Z,23.51
2022-09-06T08:36:33.038Z,23.54
2022-09-06T08:39:01.633Z,23.64
2022-09-06T08:41:37.880Z,23.81
2022-09-06T08:47:04.484Z,23.92
2022-09-06T08:49:39.153Z,23.91
2022-09-06T08:52:24.342Z,24.00
2022-09-06T08:54:56.456Z,23.98
2022-09-06T08:57:49.655Z,24.11
2022-09-06T09:00:17.264Z,24.26
2022-09-06T09:02:52.861Z,24.34
2022-09-06T09:05:25.687Z,24.42
2022-09-06T09:08:00.548Z,24.36
2022-09-06T09:10:39.579Z,24.54
2022-09-06T09:13:08.333Z,24.88
2022-09-06T09:15:40.176Z,25.11
2022-09-06T09:18:07.569Z,25.06
2022-09-06T09:20:34.217Z,24.91
2022-09-06T09:23:02.390Z,24.99
2022-09-06T09:25:33.387Z,24.96
2022-09-06T09:28:00.373Z,24.94
2022-09-06T09:30:47.599Z,24.91
2022-09-06T09:33:24.408Z,24.97
2022-09-06T09:35:51.797Z,24.99
2022-09-06T09:38:30.936Z,24.99
2022-09-06T09:41:00.109Z,24.83
2022-09-06T09:43:52.879Z,24.86
2022-09-06T09:46:22.530Z,25.11
2022-09-06T09:49:20.121Z,25.10
2022-09-06T09:52:05.016Z,25.03
2022-09-06T09:54:35.417Z,25.13
2022-09-06T09:57:04.453Z,25.07
2022-09-06T09:59:36.891Z,25.01
2022-09-06T10:02:35.779Z,25.10
2022-09-06T10:05:06.840Z,25.20
2022-09-06T10:07:34.308Z,25.43
2022-09-06T10:10:34.333Z,25.37
2022-09-06T10:13:21.768Z,25.22
2022-09-06T10:15:51.895Z,25.38
2022-09-06T10:18:30.156Z,25.26
2022-09-06T10:21:23.822Z,25.36
2022-09-06T10:26:58.718Z,25.45
2022-09-06T10:30:01.477Z,25.35
2022-09-06T10:32:58.719Z,25.09
2022-09-06T10:35:30.846Z,25.11
2022-09-06T10:38:33.295Z,25.03
2022-09-06T10:41:21.075Z,25.07
2022-09-06T10:43:54.496Z,25.18
2022-09-06T10:46:26.405Z,25.13
2022-09-06T10:48:56.216Z,25.03
2022-09-06T10:51:45.778Z,25.11
2022-09-06T10:54:21.979Z,25.22
2022-09-06T10:56:57.170Z,25.09
2022-09-06T10:59:39.264Z,25.11
2022-09-06T11:02:29.170Z,25.26
2022-09-06T11:10:51.196Z,25.32
2022-09-06T11:13:27.738Z,25.26
2022-09-06T11:15:55.296Z,25.48
2022-09-06T11:18:27.863Z,25.45
2022-09-06T11:21:20.154Z,25.45
2022-09-06T11:24:15.828Z,25.42
2022-09-06T11:26:44.114Z,25.54
2022-09-06T11:29:19.955Z,25.56
2022-09-06T11:34:54.809Z,25.63
2022-09-06T11:37:32.861Z,25.60
2022-09-06T11:40:28.626Z,25.68
2022-09-06T11:42:55.687Z,25.87
2022-09-06T11:45:53.410Z,26.04
2022-09-06T11:48:35.167Z,26.06
2022-09-06T11:51:03.706Z,26.47
2022-09-06T11:53:48.473Z,26.36
2022-09-06T11:56:41.813Z,26.94
2022-09-06T11:59:30.069Z,26.40
2022-09-06T12:02:19.905Z,26.64
2022-09-06T12:05:00.436Z,27.03
2022-09-06T12:07:29.505Z,26.99
2022-09-06T12:09:56.226Z,26.69
2022-09-06T12:12:41.763Z,26.78
2022-09-06T12:15:30.004Z,27.12
2022-09-06T12:17:58.494Z,27.41
2022-09-06T12:20:53.162Z,27.28
2022-09-06T12:23:34.984Z,27.29
2022-09-06T12:26:06.442Z,26.89
2022-09-06T12:28:47.395Z,27.06
2022-09-06T12:31:29.730Z,27.14
2022-09-06T12:33:57.601Z,27.35
2022-09-06T12:36:31.773Z,27.50
2022-09-06T12:38:59.766Z,27.34
2022-09-06T12:41:29.192Z,27.30
2022-09-06T12:43:58.469Z,27.27
2022-09-06T12:46:26.866Z,27.33
2022-09-06T12:49:00.889Z,27.34
2022-09-06T12:51:27.984Z,27.33
2022-09-06T12:53:58.487Z,27.19
2022-09-06T12:56:26.877Z,27.22
2022-09-06T12:59:09.640Z,27.12
2022-09-06T13:01:37.513Z,27.15
2022-09-06T13:04:26.406Z,27.31
2022-09-06T13:06:54.056Z,27.26
2022-09-06T13:09:22.901Z,27.42
2022-09-06T13:11:52.245Z,27.40
2022-09-06T13:14:26.806Z,27.29
2022-09-06T13:16:59.851Z,27.14
2022-09-06T13:19:36.063Z,27.11
2022-09-06T13:22:07.401Z,27.29
2022-09-06T13:24:36.855Z,27.25
2022-09-06T13:27:45.862Z,27.23
2022-09-06T13:30:30.054Z,27.30
2022-09-06T13:32:56.743Z,27.18
2022-09-06T13:35:29.315Z,27.28
2022-09-06T13:38:22.115Z,27.34
2022-09-06T13:41:11.547Z,27.43
2022-09-06T13:43:44.933Z,27.30
2022-09-06T13:46:11.999Z,27.42
2022-09-06T13:48:44.689Z,27.45
2022-09-06T13:51:11.538Z,27.31
2022-09-06T13:53:38.191Z,27.23
2022-09-06T13:56:08.581Z,27.24
2022-09-06T13:58:36.360Z,27.38
2022-09-06T14:01:04.931Z,27.55
2022-09-06T14:03:32.480Z,27.65
2022-09-06T14:06:00.320Z,27.70
2022-09-06T14:08:38.807Z,27.41
2022-09-06T14:11:14.865Z,27.49
2022-09-06T14:13:41.822Z,27.58
2022-09-06T14:16:08.567Z,27.75
2022-09-06T14:18:36.238Z,27.58
2022-09-06T14:21:03.283Z,27.29
2022-09-06T14:23:29.905Z,27.34
2022-09-06T14:25:57.558Z,27.04
2022-09-06T14:28:25.343Z,26.87
2022-09-06T14:30:52.348Z,26.82
2022-09-06T14:33:20.010Z,26.74
2022-09-06T14:35:47.607Z,26.63
2022-09-06T14:38:14.728Z,26.80
2022-09-06T14:40:45.593Z,26.90
2022-09-06T14:43:12.145Z,26.60
2022-09-06T14:45:38.837Z,26.57
2022-09-06T14:48:05.720Z,26.33
2022-09-06T14:50:32.459Z,26.48
2022-09-06T14:52:59.182Z,26.49
2022-09-06T14:55:28.092Z,26.47
2022-09-06T14:57:54.990Z,26.42
2022-09-06T15:00:22.692Z,26.40
2022-09-06T15:02:49.385Z,26.54
2022-09-06T15:05:16.202Z,26.64
2022-09-06T15:07:43.250Z,26.48
2022-09-06T15:10:10.871Z,26.48
2022-09-06T15:12:38.128Z,26.65
2022-09-06T15:15:05.626Z,26.73
2022-09-06T15:17:34.260Z,26.93
2022-09-06T15:20:01.174Z,27.14
2022-09-06T15:22:27.986Z,27.34
2022-09-06T15:24:54.679Z,27.50
2022-09-06T15:27:21.601Z,27.36
2022-09-06T15:29:48.204Z,27.55
2022-09-06T15:32:14.817Z,27.71
2022-09-06T15:34:41.503Z,27.58
2022-09-06T15:37:08.211Z,27.61
2022-09-06T15:39:35.029Z,27.90
2022-09-06T15:42:01.776Z,27.80
2022-09-06T15:44:28.518Z,27.96
2022-09-06T15:46:58.104Z,28.02
2022-09-06T15:49:31.209Z,28.20
2022-09-06T15:52:00.920Z,28.48
2022-09-06T15:54:47.060Z,28.37
2022-09-06T15:57:18.195Z,28.29
2022-09-06T15:59:45.759Z,28.39
2022-09-06T16:02:12.764Z,28.11
2022-09-06T16:04:39.543Z,28.08
2022-09-06T16:07:07.167Z,28.13
2022-09-06T16:09:33.786Z,27.88
2022-09-06T16:12:00.404Z,28.01
2022-09-06T16:14:28.334Z,27.74
2022-09-06T16:16:55.140Z,27.90
2022-09-06T16:19:21.831Z,27.70
2022-09-06T16:21:49.204Z,27.97
2022-09-06T16:24:18.244Z,27.52
2022-09-06T16:26:48.891Z,27.70
2022-09-06T16:29:18.124Z,27.62
2022-09-06T16:31:46.708Z,27.74
2022-09-06T16:34:14.118Z,27.90
2022-09-06T16:36:41.094Z,27.63
2022-09-06T16:39:08.985Z,27.72
2022-09-06T16:41:43.577Z,27.71
2022-09-06T16:44:16.462Z,28.00
2022-09-06T16:46:48.457Z,28.18
2022-09-06T16:49:17.391Z,28.17
2022-09-06T16:51:44.833Z,28.18
2022-09-06T16:54:11.524Z,27.79
2022-09-06T16:56:38.961Z,28.03
2022-09-06T16:59:07.491Z,27.52
2022-09-06T17:01:36.392Z,27.36
2022-09-06T17:04:04.486Z,27.66
2022-09-06T17:06:32.517Z,27.59
2022-09-06T17:08:59.481Z,27.85
2022-09-06T17:11:27.753Z,27.98
2022-09-06T17:13:55.419Z,28.02
2022-09-06T17:16:41.288Z,27.91
2022-09-06T17:19:08.787Z,27.88
2022-09-06T17:21:36.141Z,27.46
2022-09-06T17:24:04.749Z,27.49
2022-09-06T17:26:33.814Z,27.51
2022-09-06T17:29:00.508Z,27.43
2022-09-06T17:31:28.120Z,27.42
2022-09-06T17:33:54.895Z,27.19
2022-09-06T17:36:25.101Z,27.16
2022-09-06T17:38:54.123Z,27.08
2022-09-06T17:41:24.284Z,26.95
2022-09-06T17:43:52.881Z,26.90
2022-09-06T17:46:20.245Z,26.96
2022-09-06T17:48:46.976Z,26.95
2022-09-06T17:51:13.617Z,26.82
2022-09-06T17:53:43.880Z,26.85
2022-09-06T17:56:12.398Z,26.82
2022-09-06T17:58:40.465Z,26.58
2022-09-06T18:01:10.454Z,26.57
2022-09-06T18:03:39.714Z,26.46
2022-09-06T18:06:09.240Z,26.40
2022-09-06T18:08:37.782Z,26.32
2022-09-06T18:11:09.359Z,26.37
2022-09-06T18:13:36.593Z,26.25
2022-09-06T18:16:04.369Z,26.01
2022-09-06T18:18:31.699Z,25.79
2022-09-06T18:20:58.383Z,25.86
2022-09-06T18:23:28.578Z,25.77
2022-09-06T18:25:57.292Z,25.76
2022-09-06T18:28:24.387Z,25.72
2022-09-06T18:30:53.651Z,25.65
2022-09-06T18:33:23.708Z,25.72
2022-09-06T18:35:51.738Z,25.47
2022-09-06T18:38:18.656Z,25.51
2022-09-06T18:40:56.689Z,25.61
2022-09-06T18:43:27.015Z,25.45
2022-09-06T18:46:00.937Z,25.45
2022-09-06T18:48:28.910Z,25.40
2022-09-06T18:50:59.853Z,25.36
2022-09-06T18:53:26.646Z,25.18
2022-09-06T18:55:53.736Z,25.22
2022-09-06T18:58:20.339Z,25.32
2022-09-06T19:00:47.489Z,25.43
2022-09-06T19:03:14.459Z,25.35
2022-09-06T19:05:41.102Z,25.20
2022-09-06T19:08:08.093Z,25.26
2022-09-06T19:10:34.704Z,25.32
2022-09-06T19:13:01.384Z,25.10
2022-09-06T19:15:28.367Z,25.01
2022-09-06T19:17:55.113Z,24.95
2022-09-06T19:20:21.775Z,25.03
2022-09-06T19:22:51.147Z,24.57
2022-09-06T19:25:19.025Z,24.38
2022-09-06T19:27:48.669Z,24.06
2022-09-06T19:30:15.660Z,23.55
2022-09-06T19:32:42.325Z,23.54
2022-09-06T19:35:09.301Z,23.90
2022-09-06T19:37:35.911Z,24.18
2022-09-06T19:40:02.814Z,24.44
2022-09-06T19:42:29.554Z,24.25
2022-09-06T19:44:56.223Z,24.06
2022-09-06T19:47:22.840Z,23.98
2022-09-06T19:49:49.442Z,24.24
2022-09-06T19:52:16.043Z,24.52
2022-09-06T19:54:43.314Z,24.43
2022-09-06T19:57:10.191Z,24.59
2022-09-06T19:59:36.955Z,24.40
2022-09-06T20:02:03.757Z,24.29
2022-09-06T20:04:30.529Z,24.25
2022-09-06T20:06:58.441Z,24.28
2022-09-06T20:09:25.196Z,23.91
2022-09-06T20:11:52.038Z,23.86
2022-09-06T20:14:19.020Z,24.27
2022-09-06T20:16:45.796Z,24.32
2022-09-06T20:19:14.545Z,24.58
2022-09-06T20:21:41.371Z,24.61
2022-09-06T20:24:08.070Z,24.49
2022-09-06T20:26:34.687Z,24.63
2022-09-06T20:29:03.364Z,24.59
2022-09-06T20:31:31.832Z,24.52
2022-09-06T20:34:00.193Z,24.53
2022-09-06T20:36:27.017Z,24.45
2022-09-06T20:38:54.176Z,24.22
2022-09-06T20:41:23.727Z,24.44
2022-09-06T20:43:52.510Z,24.46
2022-09-06T20:46:21.198Z,24.52
2022-09-06T20:48:48.071Z,24.53
2022-09-06T20:51:20.115Z,24.48
2022-09-06T20:53:48.775Z,24.52
2022-09-06T20:56:18.563Z,24.51
2022-09-06T20:58:53.976Z,24.44
2022-09-06T21:01:23.303Z,24.35
2022-09-06T21:03:55.062Z,24.08
2022-09-06T21:06:22.832Z,24.21
2022-09-06T21:08:50.362Z,24.26
2022-09-06T21:11:18.082Z,24.35
2022-09-06T21:13:49.888Z,24.12
2022-09-06T21:16:21.815Z,24.33
2022-09-06T21:18:56.823Z,23.79
2022-09-06T21:21:25.360Z,23.35
2022-09-06T21:23:52.673Z,23.23
2022-09-06T21:26:22.600Z,23.74
2022-09-06T21:28:50.318Z,23.76
2022-09-06T21:31:23.222Z,23.66
2022-09-06T21:33:55.763Z,23.48
2022-09-06T21:36:30.275Z,23.20
2022-09-06T21:39:00.740Z,23.53
2022-09-06T21:41:28.949Z,23.29
2022-09-06T21:43:58.343Z,23.37
2022-09-06T21:46:32.374Z,23.47
2022-09-06T21:49:03.688Z,23.73
2022-09-06T21:51:31.100Z,23.21
2022-09-06T21:53:58.066Z,23.11
2022-09-06T21:56:25.347Z,23.39
2022-09-06T21:58:55.370Z,23.69
2022-09-06T22:01:27.820Z,23.56
2022-09-06T22:03:54.602Z,23.70
2022-09-06T22:06:24.769Z,23.66
2022-09-06T22:08:52.146Z,23.40
2022-09-06T22:11:30.376Z,23.21
2022-09-06T22:14:02.844Z,22.90
2022-09-06T22:16:31.146Z,22.75
2022-09-06T22:18:58.280Z,22.18
2022-09-06T22:21:25.278Z,21.87
2022-09-06T22:23:54.488Z,22.25
2022-09-06T22:26:21.957Z,21.84
2022-09-06T22:28:53.562Z,21.87
2022-09-06T22:31:20.477Z,22.07
2022-09-06T22:33:47.661Z,21.66
2022-09-06T22:36:14.373Z,21.77
2022-09-06T22:38:41.051Z,21.94
2022-09-06T22:41:08.115Z,21.70
2022-09-06T22:43:35.193Z,21.74
2022-09-06T22:46:04.597Z,21.51
2022-09-06T22:48:32.236Z,21.47
2022-09-06T22:51:00.619Z,21.51
2022-09-06T22:53:28.514Z,21.53
2022-09-06T22:55:55.830Z,21.24
2022-09-06T22:58:29.326Z,21.10
2022-09-06T23:00:56.995Z,21.64
2022-09-06T23:03:23.814Z,21.44
2022-09-06T23:05:50.498Z,21.65
2022-09-06T23:08:17.113Z,21.67
2022-09-06T23:10:44.359Z,21.77
2022-09-06T23:13:11.533Z,21.89
2022-09-06T23:15:41.016Z,21.69
2022-09-06T23:18:08.387Z,21.57
2022-09-06T23:20:37.109Z,22.10
2022-09-06T23:23:07.822Z,22.19
2022-09-06T23:25:38.885Z,22.36
2022-09-06T23:28:06.118Z,22.43
2022-09-06T23:30:35.919Z,22.30
2022-09-06T23:33:02.953Z,22.28
2022-09-06T23:35:29.985Z,22.29
2022-09-06T23:37:57.605Z,22.46
2022-09-06T23:40:24.461Z,22.56
2022-09-06T23:42:51.522Z,22.46
2022-09-06T23:45:19.364Z,22.46
2022-09-06T23:47:47.516Z,22.51
2022-09-06T23:50:15.519Z,22.34
2022-09-06T23:52:48.100Z,22.56
2022-09-06T23:55:15.231Z,22.54
2022-09-06T23:57:42.083Z,22.38
